NCAR-RAP Real-Time Weather Data

Output produced by METARs form (08 May 2021  16:09 UTC)
found at http://weather.rap.ucar.edu/surface/
 
KMSP 081553Z 00000KT 10SM BKN170 12/M03 A3010 RMK AO2 SLP197 T01221028
KMSP 081453Z 18007KT 10SM BKN250 11/M03 A3012 RMK AO2 SLP203 T01111033 58003
KMSP 081353Z 18005KT 10SM FEW250 09/M02 A3013 RMK AO2 SLP207 T00941022
KMSP 081253Z 16005KT 10SM FEW250 07/M02 A3013 RMK AO2 SLP207 T00721022
KMSP 081153Z 13003KT 10SM SCT250 06/M03 A3013 RMK AO2 SLP206 T00561028 10072 20044 55003
KMSP 081053Z 00000KT 10SM CLR 05/M03 A3012 RMK AO2 SLP205 T00501033
KMSP 080953Z 15004KT 10SM CLR 05/M03 A3013 RMK AO2 SLP206 T00501033
KMSP 080853Z 16005KT 10SM CLR 05/M03 A3014 RMK AO2 SLP209 T00501028 51005
KMSP 080753Z 13004KT 10SM CLR 06/M03 A3013 RMK AO2 SLP208 T00561028
KMSP 080653Z 11007KT 10SM CLR 07/M03 A3013 RMK AO2 SLP207 T00671033
KMSP 080553Z AUTO 09008KT 10SM CLR 07/M03 A3012 RMK AO2 SLP204 T00721033 10128 20072 401440039 51007
KMSP 080453Z AUTO 00000KT 10SM CLR 08/M02 A3012 RMK AO2 SLP201 T00781022
KMSP 080353Z 05003KT 10SM CLR 09/M03 A3011 RMK AO2 SLP200 T00891033
KMSP 080253Z 04004KT 10SM FEW060 09/M04 A3010 RMK AO2 SLP197 T00941039 53011
KMSP 080153Z 04005KT 10SM FEW060 10/M04 A3008 RMK AO2 SLP191 T01001044
KMSP 080053Z 02006KT 10SM FEW060 12/M04 A3007 RMK AO2 SLP188 T01171044
KMSP 072353Z 07007KT 10SM FEW070 13/M05 A3007 RMK AO2 SLP186 T01281050 10144 20111 56010
KMSP 072253Z 03010G15KT 10SM SCT070 14/M03 A3007 RMK AO2 SLP189 T01391033
KMSP 072153Z 36007G17KT 280V020 10SM SCT070 12/M04 A3009 RMK AO2 SLP193 T01221044
KMSP 072053Z 03008KT 10SM SCT070 13/M04 A3010 RMK AO2 SLP196 T01331039 56012
KMSP 071953Z 36007KT 340V040 10SM SCT060 14/M02 A3011 RMK AO2 SLP198 T01391022
KMSP 071853Z 35013G20KT 10SM SCT060 13/M03 A3012 RMK AO2 SLP203 T01281028
KMSP 071753Z 36010G22KT 10SM BKN060 12/M03 A3013 RMK AO2 SLP207 T01171028 10128 20050 58002
KMSP 071653Z 01011G20KT 10SM BKN060 12/M02 A3014 RMK AO2 SLP209 T01221022
KMSP 071553Z 02007G23KT 10SM BKN060 11/M03 A3014 RMK AO2 SLP209 T01111028
KMSP 071453Z 35010G19KT 10SM FEW050 09/M02 A3014 RMK AO2 SLP209 T00941022 50004
KMSP 071353Z 35010KT 10SM CLR 08/00 A3014 RMK AO2 SLP209 T00830000
KMSP 071253Z 36008KT 10SM CLR 07/01 A3013 RMK AO2 SLP208 T00670006
KMSP 071153Z 33006KT 10SM CLR 05/01 A3013 RMK AO2 SLP205 T00500011 10083 20039 53019
KMSP 071053Z 34005KT 10SM CLR 04/01 A3010 RMK AO2 SLP195 T00390011
KMSP 070953Z 36007KT 10SM CLR 05/02 A3008 RMK AO2 SLP190 T00500017
KMSP 070853Z 33007KT 10SM CLR 06/03 A3007 RMK AO2 SLP185 T00560028 53002
KMSP 070753Z 32005KT 10SM CLR 06/02 A3007 RMK AO2 SLP184 T00560022
KMSP 070653Z 35004KT 10SM CLR 07/03 A3006 RMK AO2 SLP183 T00720028
KMSP 070553Z 01006KT 10SM SCT060 BKN080 08/03 A3006 RMK AO2 SLP182 60000 T00830033 10161 20083 401670039 53006
KMSP 070453Z 01006KT 10SM FEW090 SCT110 08/03 A3005 RMK AO2 SLP178 T00830033
KMSP 070353Z 02004KT 10SM SCT044 SCT050 BKN100 10/03 A3003 RMK AO2 PK WND 30034/0309 RAE41 SLP173 P0000 T01000033
KMSP 070253Z 32017G38KT 9SM -RA SCT048 BKN070 OVC085 11/03 A3004 RMK AO2 PK WND 31038/0248 RAB45 SLP177 P0000 60000 T01110028 53006
KMSP 070153Z 32018G32KT 10SM FEW065 OVC090 15/M04 A3001 RMK AO2 PK WND 28035/0127 SLP165 VIRGA T01501039
KMSP 070053Z 27007KT 10SM SCT095 BKN120 15/M06 A3000 RMK AO2 SLP163 T01501056
KMSP 062353Z 29008G19KT 10SM BKN095 16/M05 A3003 RMK AO2 PK WND 27033/2331 SLP171 T01611050 10167 20144 57024
KMSP 062253Z 26008KT 10SM BKN110 17/M06 A3005 RMK AO2 PK WND 27027/2159 SLP179 T01671056
KMSP 062153Z 33009G19KT 10SM SCT095 16/M06 A3007 RMK AO2 PK WND 31027/2129 SLP188 T01611056
KMSP 062053Z 33010G25KT 10SM SCT090 14/M05 A3010 RMK AO2 SLP196 T01441050 56020
KMSP 061953Z 33012G26KT 10SM SCT090 15/M06 A3012 RMK AO2 PK WND 29028/1931 SLP202 T01501056
KMSP 061853Z 34009G18KT 10SM FEW075 16/M04 A3013 RMK AO2 SLP206 T01561039
KMSP 061753Z 32017G24KT 10SM SCT075 15/M03 A3016 RMK AO2 PK WND 30026/1720 SLP216 T01501033 10150 20056 58013
KMSP 061653Z 34015G21KT 10SM SCT050 12/M02 A3017 RMK AO2 SLP222 T01221017